Longue-Pointe, Canada
Current Conditions -  °F | °C
As of 5:37 AM on Thursday 18 Dec 2014 (Local Time) from CYGV Reporting Station
Light Snow Light Snow  
Wind Chill: 13°   Ceiling: 1300
Heat Index: 27°   Visibility: 9mi
Dew Point: 25°   Wind: 18mph
Humidity: 93%   Direction: 50°NE
Pressure: 29.87"   Gusts: 25mph
Location:  50.27°N, 64.15°W
Report Text: CYGV 181037Z AUTO 05016G22KT 9SM -SN BKN013 OVC019 M03/M04 A2987 RMK ICG PAST HR SLP118
Loading
Personal Weather Stations






























Interactive Weather Map New forecast layout! Learn more

10-Day Weather Forecast

Advertisements
Track Severe Weather on mobile